Colorado Springs, CO (80977)

3:15 AM MDT on August 28, 2014 (GMT -0600)
Widefield-Near-King-Elementary | Change Station
CLOSE
Current Station
Personal Weather Station
Location: Widefield, CO
Elevation: 5880 ft
Nearby Weather Stations

Elev 5880 ft 38.74 °N, 104.70 °W | Updated 17 seconds ago

Clear
Clear
53.4 °F
Feels Like 53.4 °F
N
0.0
Wind Variable Wind from NW
Gusts 1.0 mph

Today
High -- | Low -- °F
--% Chance of Precip.
Yesterday
High -- | Low -- °F
Precip. -- in
6:24 AM 7:34 PM
Waxing Crescent, 7% visible
Pressure 29.98 in
Visibility 10.0 miles
Clouds Clear
Dew Point 49 °F
Humidity 86%
Rainfall 0.00 in
Snow Depth Not available.
UV 0 out of 12
Pollen 8.10 out of 12
Air Quality Not available.
Flu Activity Not available.
METAR KCOS 280854Z 28004KT 10SM CLR 12/09 A3020 RMK AO2 SLP151 T01220089 51002

More Conditions Fewer Conditions

Pressure 29.98 in
Visibility 10.0 miles
Clouds Clear
Dew Point 49 °F
Humidity 86%
Rainfall 0.00 in
Snow Depth Not available.
UV 0 out of 12
Pollen 8.10 out of 12
Air Quality Not available.
Flu Activity Not available.
METAR KCOS 280854Z 28004KT 10SM CLR 12/09 A3020 RMK AO2 SLP151 T01220089 51002

More Conditions Fewer Conditions

10-Day Weather Forecast

Almanac

Astronomy

Aug. 28, 2014 Rise Set
Actual Time 6:24 AM MDT 7:34 PM MDT
Civil Twilight 5:56 AM MDT 8:02 PM MDT
Nautical Twilight 5:23 AM MDT 8:34 PM MDT
Astronomical Twilight 4:49 AM MDT 9:09 PM MDT
Moon 9:16 AM MDT 9:02 PM MDT
Length of Visible Light 14h 05m
Length of Day
13h 10m
Tomorrow will be 2m 24s shorter.
Waxing Crescent, 7% of the Moon is Illuminated
Today
Waxing Crescent
Sep 2
First Quarter
Sep 8
Full
Sep 15
Last Quarter
Sep 24
New

Today's Extremes

State Highs State Lows

Community

WunderPhotos

Upload Photos

1,747,918 photos uploaded!

Nearby

Air Quality

  Air Quality AQ Index Pollutant
Yesterday Good
OZONE
Thursday Good
PM2.5
Thursday Good
OZONE

Snow Depth

Station Depth Elevation
Glen Cove 0 in 11460 ft
South Colony 0 in 10800 ft
Medano Pass 0 in 9620 ft
Rough And Tumble 1 in 10360 ft
Echo Lake 0 in 10600 ft

Earthquake Activity

City Distance Mag. Time & Date
No recent earthquake activity has been reported nearby.
Minimum magnitude displayed is 2.5.

Coastal Water Temperatures

Place Temperature
No Stations Reporting

Nearby Weather Stations